Nearby METAR Reports

 

KTTN - Trenton, New Jersey, USA
Distance from station: WNW 11mi, 17km
Updated: Wed, 08-Apr-2020 12:53pm EDT
Partly cloudy
Partly cloudy
 Wind from WNW
Wind: WNW 12 mph , 19 km/h, Gust: 18 mph , 30 km/h
Temperature: 66°F , 19°C
Dew Point: 52°F , 11°C
Humidity: 60%
Barometer: 29.54 inHg , 1000.3 hPa
Clouds: Partly cloudy
Visibility: 10 miles , 16 km
Cloud details: Few Clouds 4200 ft
Partly cloudy 5000 ft
2020/04/08 16:53 KTTN 081653Z 29010G16KT 10SM FEW042 SCT050 19/11 A2954 RMK AO2 SLP998 T01940111
KWRI - Wrightst/Mcguire, New Jersey, USA
Distance from station: SSE 14mi, 22km
Updated: Wed, 08-Apr-2020 12:56pm EDT
Mostly cloudy
Mostly cloudy
 Wind from NNW
Wind: NNW 14 mph , 22 km/h
Temperature: 72°F , 22°C
Dew Point: 52°F , 11°C
Humidity: 50%
Barometer: 29.54 inHg , 1000.3 hPa
Clouds: Mostly cloudy
Visibility: 10 miles , 16 km
Cloud details: Mostly cloudy 3800 ft
Mostly cloudy 4700 ft
2020/04/08 16:56 KWRI 081656Z AUTO 33012KT 10SM BKN038 BKN047 22/11 A2954 RMK AO2 SLP003 T02150106 $
 
KNEL - Lakehurst Nas, New Jersey, USA
Distance from station: SE 21mi, 34km
Updated: Wed, 08-Apr-2020 1:00pm EDT
Mostly cloudy
Mostly cloudy
 Wind from NW
Wind: NW 7 mph , 11 km/h, Gust: 20 mph , 31 km/h
Temperature: 66°F , 19°C
Dew Point: 52°F , 11°C
Humidity: 60%
Barometer: 29.53 inHg , 1000 hPa
Clouds: Mostly cloudy
Visibility: 10 miles , 16 km
Cloud details: Partly cloudy 3400 ft
Mostly cloudy 4700 ft
2020/04/08 17:00 KNEL 081700Z AUTO 32006G17KT 10SM SCT034 BKN047 19/11 A2953 RMK AO2 SLP999 T01890111 $
KPNE - Philadelphia/Ne, Pennsylvania, USA
Distance from station: WSW 22mi, 35km
Updated: Wed, 08-Apr-2020 12:54pm EDT
Mostly cloudy
Mostly cloudy
 Wind from NW
Wind: NW 10 mph , 17 km/h, Gust: 20 mph , 31 km/h
Temperature: 72°F , 22°C
Dew Point: 52°F , 11°C
Humidity: 50%
Barometer: 29.56 inHg , 1001 hPa
Clouds: Mostly cloudy
Visibility: 10 miles , 16 km
Cloud details: Partly cloudy 4200 ft
Mostly cloudy 5500 ft
2020/04/08 16:54 KPNE 081654Z 31009G17KT 10SM SCT042 BKN055 22/11 A2956 RMK AO2 SLP011 T02170111
 
KVAY - Mount Holly, New Jersey, USA
Distance from station: SSW 22mi, 35km
Updated: Wed, 08-Apr-2020 12:54pm EDT
Mostly cloudy
Mostly cloudy
 Wind from W
Wind: W 10 mph , 17 km/h
Temperature: 68°F , 20°C
Dew Point: 52°F , 11°C
Humidity: 56%
Barometer: 29.55 inHg , 1000.7 hPa
Clouds: Mostly cloudy
Visibility: 10 miles , 16 km
Cloud details: Partly cloudy 4000 ft
Mostly cloudy 6000 ft
2020/04/08 16:54 KVAY 081654Z AUTO 28009KT 10SM SCT040 BKN060 20/11 A2955 RMK AO2 SLP005 T02000106
KMJX - Toms River, New Jersey, USA
Distance from station: SE 26mi, 42km
Updated: Wed, 08-Apr-2020 12:56pm EDT
Overcast
Overcast
 Wind from N
Wind: N 9 mph , 15 km/h, Gust: 16 mph , 26 km/h
Temperature: 66°F , 19°C
Dew Point: 54°F , 12°C
Humidity: 64%
Barometer: 29.54 inHg , 1000.3 hPa
Clouds: Overcast
Visibility: 10 miles , 16 km
Cloud details: Mostly cloudy 3600 ft
Mostly cloudy 4600 ft
Overcast 6000 ft
2020/04/08 16:56 KMJX 081656Z AUTO 36008G14KT 10SM BKN036 BKN046 OVC060 19/12 A2954 RMK AO2 SLP007 T01890117
 
KDYL - Doylestown, Pennsylvania, USA
Distance from station: WNW 27mi, 43km
Updated: Wed, 08-Apr-2020 12:54pm EDT
Mostly cloudy
Mostly cloudy
 Wind from WNW
Wind: WNW 10 mph , 17 km/h, Gust: 17 mph , 28 km/h
Temperature: 68°F , 20°C
Dew Point: 48°F , 9°C
Humidity: 49%
Barometer: 29.55 inHg , 1000.7 hPa
Clouds: Mostly cloudy
Visibility: 10 miles , 16 km
Cloud details: Few Clouds 3700 ft
Partly cloudy 4600 ft
Mostly cloudy 5500 ft
2020/04/08 16:54 KDYL 081654Z AUTO 30009G15KT 260V330 10SM FEW037 SCT046 BKN055 20/09 A2955 RMK AO2 SLP003 T02000094
KBLM - Belmar/Farmdale, New Jersey, USA
Distance from station: E 28mi, 45km
Updated: Wed, 08-Apr-2020 1:07pm EDT
Mostly cloudy
Mostly cloudy
 Wind from NNW
Wind: NNW 13 mph , 20 km/h, Gust: 17 mph , 28 km/h
Temperature: 64°F , 18°C
Dew Point: 54°F , 12°C
Humidity: 68%
Barometer: 29.55 inHg , 1000.7 hPa
Clouds: Mostly cloudy
Visibility: 10 miles , 16 km
Cloud details: Mostly cloudy 2300 ft
2020/04/08 17:07 KBLM 081707Z AUTO 33011G15KT 10SM BKN023 18/12 A2955 RMK AO2
 
KSMQ - Somerville, New Jersey, USA
Distance from station: N 28mi, 45km
Updated: Wed, 08-Apr-2020 12:53pm EDT
Overcast
Overcast
 Wind from N
Wind: N 6 mph , 9 km/h
Temperature: 63°F , 17°C
Dew Point: 48°F , 9°C
Humidity: 59%
Barometer: 29.54 inHg , 1000.3 hPa
Clouds: Overcast
Visibility: 10 miles , 16 km
Cloud details: Partly cloudy 3600 ft
Overcast 4900 ft
2020/04/08 16:53 KSMQ 081653Z AUTO 36005KT 10SM SCT036 OVC049 17/09 A2954 RMK AO2 SLP004 T01670094
KLOM - Philly Wings F, Pennsylvania, USA
Distance from station: W 34mi, 54km
Updated: Wed, 08-Apr-2020 12:55pm EDT
Overcast
Overcast
 Wind from WNW
Wind: WNW 9 mph , 15 km/h, Gust: 24 mph , 39 km/h
Temperature: 66°F , 19°C
Dew Point: 50°F , 10°C
Humidity: 56%
Barometer: 29.57 inHg , 1001.4 hPa
Clouds: Overcast
Visibility: 10 miles , 16 km
Cloud details: Partly cloudy 4300 ft
Overcast 5500 ft
2020/04/08 16:55 KLOM 081655Z AUTO 30008G21KT 10SM SCT043 OVC055 19/10 A2957 RMK AO2 T01940099
 
KLDJ - Linden, New Jersey, USA
Distance from station: NE 35mi, 56km
Updated: Wed, 08-Apr-2020 12:55pm EDT
Overcast
Overcast
 Wind from N
Wind: N 12 mph , 19 km/h, Gust: 20 mph , 31 km/h
Temperature: 61°F , 16°C
Dew Point: 46°F , 8°C
Humidity: 59%
Barometer: 29.57 inHg , 1001.4 hPa
Clouds: Overcast
Visibility: 10 miles , 16 km
Cloud details: Partly cloudy 3300 ft
Overcast 4600 ft
2020/04/08 16:55 KLDJ 081655Z AUTO 36010G17KT 10SM SCT033 OVC046 16/08 A2957 RMK AO2 T01630080
KCKZ - Perkasie, Pennsylvania, USA
Distance from station: WNW 36mi, 58km
Updated: Wed, 08-Apr-2020 12:55pm EDT
Mostly cloudy
Mostly cloudy
 Wind from WNW
Wind: WNW 10 mph , 17 km/h, Gust: 17 mph , 28 km/h
Temperature: 64°F , 18°C
Dew Point: 50°F , 10°C
Humidity: 60%
Barometer: 29.57 inHg , 1001.4 hPa
Clouds: Mostly cloudy
Visibility: 10 miles , 16 km
Cloud details: Few Clouds 4300 ft
Mostly cloudy 5000 ft
2020/04/08 16:55 KCKZ 081655Z AUTO 30009G15KT 10SM FEW043 BKN050 18/10 A2957 RMK AO2
 
KPHL - Philadelphia, Pennsylvania, USA
Distance from station: SW 40mi, 64km
Updated: Wed, 08-Apr-2020 12:54pm EDT
Partly cloudy
Partly cloudy
 Wind from NW
Wind: NW 13 mph , 20 km/h
Temperature: 70°F , 21°C
Dew Point: 48°F , 9°C
Humidity: 46%
Barometer: 29.56 inHg , 1001 hPa
Clouds: Partly cloudy
Visibility: 10 miles , 16 km
Cloud details: Partly cloudy 4300 ft
2020/04/08 16:54 KPHL 081654Z 31011KT 10SM SCT043 21/09 A2956 RMK AO2 SLP008 T02060094
KEWR - Newark, New Jersey, USA
Distance from station: NE 41mi, 66km
Updated: Wed, 08-Apr-2020 12:51pm EDT
Mostly cloudy
Mostly cloudy
 Wind from NW
Wind: NW 12 mph , 19 km/h
Temperature: 63°F , 17°C
Dew Point: 46°F , 8°C
Humidity: 56%
Barometer: 29.56 inHg , 1001 hPa
Clouds: Mostly cloudy
Visibility: 10 miles , 16 km
Cloud details: Few Clouds 3100 ft
Mostly cloudy 4400 ft
2020/04/08 16:51 KEWR 081651Z 32010KT 10SM FEW031 BKN044 17/08 A2956 RMK AO2 SLP009 T01720083
 
KMMU - Morristown Muni, New Jersey, USA
Distance from station: NNE 41mi, 66km
Updated: Wed, 08-Apr-2020 12:45pm EDT
Overcast
Overcast
 Wind from N
Wind: N 8 mph , 13 km/h
Temperature: 63°F , 17°C
Dew Point: 50°F , 10°C
Humidity: 64%
Barometer: 29.57 inHg , 1001.4 hPa
Clouds: Overcast
Visibility: 10 miles , 16 km
Cloud details: Mostly cloudy 3500 ft
Overcast 4500 ft
2020/04/08 16:45 KMMU 081645Z 35007KT 10SM BKN035 OVC045 17/10 A2957
KUKT - Quakertown Arp, Pennsylvania, USA
Distance from station: WNW 42mi, 68km
Updated: Wed, 08-Apr-2020 1:00pm EDT
Mostly cloudy
Mostly cloudy
 Wind from varies
Wind: varies 7 mph , 11 km/h
Temperature: 64°F , 18°C
Dew Point: 52°F , 11°C
Humidity: 64%
Barometer: 29.57 inHg , 1001.4 hPa
Clouds: Mostly cloudy
Visibility: 10 miles , 16 km
Cloud details: Mostly cloudy 3500 ft
Mostly cloudy 4100 ft
Mostly cloudy 4700 ft
2020/04/08 17:00 KUKT 081700Z AUTO VRB06KT 10SM BKN035 BKN041 BKN047 18/11 A2957 RMK A01
 
KJRB - Manhattan/Dwntwn, New York, USA
Distance from station: NE 47mi, 75km
Updated: Wed, 08-Apr-2020 12:56pm EDT
Mostly cloudy
Mostly cloudy
 Wind from varies
Wind: varies 5 mph , 7 km/h
Temperature: 63°F , 17°C
Dew Point: 50°F , 10°C
Humidity: 64%
Barometer: 29.57 inHg , 1001.4 hPa
Clouds: Mostly cloudy
Visibility: 10 miles , 16 km
Cloud details: Few Clouds 3600 ft
Mostly cloudy 4400 ft
2020/04/08 16:56 KJRB 081656Z AUTO VRB04KT 10SM FEW036 BKN044 17/10 A2957 RMK AO2 SLP012 T01670100 PNO $
KPTW - Pottstown, Pennsylvania, USA
Distance from station: W 48mi, 77km
Updated: Wed, 08-Apr-2020 12:54pm EDT
Overcast
Overcast
 Wind from W
Wind: W 9 mph , 15 km/h, Gust: 17 mph , 28 km/h
Temperature: 66°F , 19°C
Dew Point: 50°F , 10°C
Humidity: 56%
Barometer: 29.58 inHg , 1001.7 hPa
Clouds: Overcast
Visibility: 10 miles , 16 km
Cloud details: Few Clouds 4300 ft
Overcast 5500 ft
2020/04/08 16:54 KPTW 081654Z AUTO 28008G15KT 10SM FEW043 OVC055 19/10 A2958 RMK AO2 SLP014 T01890100
 
KCDW - Caldwell, New Jersey, USA
Distance from station: NNE 50mi, 80km
Updated: Wed, 08-Apr-2020 12:53pm EDT
Overcast
Overcast
 Wind from NE
Wind: NE 5 mph , 7 km/h
Temperature: 61°F , 16°C
Dew Point: 46°F , 8°C
Humidity: 59%
Barometer: 29.57 inHg , 1001.4 hPa
Clouds: Overcast
Visibility: 10 miles , 16 km
Cloud details: Overcast 3900 ft
2020/04/08 16:53 KCDW 081653Z 04004KT 10SM OVC039 16/08 A2957 RMK AO2 SLP017 T01560083